Time;durP1;ratioP1;P1;durP2;ratioP2;P2;SDS_P1;SDS_P2;PMS_P1;PMS_P2;Temp;Humidity;BMP_temperature;BMP_pressure;BME280_temperature;BME280_humidity;BME280_pressure;Samples;Min_cycle;Max_cycle;Signal;HPM_P1;HPM_P2
2021/05/09 00:01:08;;;;;;;2.20;1.52;;;14.80;57.60;;;;;;6129174;23;20025;-86
2021/05/09 00:03:33;;;;;;;2.25;1.50;;;14.80;57.70;;;;;;6129380;23;20351;-86
2021/05/09 00:05:59;;;;;;;2.35;1.30;;;14.80;57.90;;;;;;6128034;23;20010;-86
2021/05/09 00:08:25;;;;;;;2.20;1.40;;;14.70;57.90;;;;;;6128861;23;20247;-87
2021/05/09 00:10:50;;;;;;;1.55;1.15;;;14.70;58.10;;;;;;6127967;23;20017;-86
2021/05/09 00:13:17;;;;;;;1.45;1.10;;;14.60;57.50;;;;;;6128131;23;20010;-87
2021/05/09 00:15:43;;;;;;;2.67;1.17;;;14.50;58.60;;;;;;6127954;23;20315;-86
2021/05/09 00:18:08;;;;;;;5.30;1.45;;;14.50;57.90;;;;;;6129067;23;20006;-86
2021/05/09 00:20:34;;;;;;;3.67;1.45;;;14.40;58.70;;;;;;6127879;23;20010;-87
2021/05/09 00:22:59;;;;;;;1.25;0.75;;;14.30;59.00;;;;;;6129314;23;20001;-86
2021/05/09 00:25:26;;;;;;;2.13;1.33;;;14.40;58.70;;;;;;6129079;23;19998;-87
2021/05/09 00:27:51;;;;;;;1.77;1.35;;;14.30;58.70;;;;;;6127454;23;20013;-86
2021/05/09 00:30:19;;;;;;;1.30;0.90;;;14.30;58.70;;;;;;6129150;23;20081;-87
2021/05/09 00:32:45;;;;;;;2.17;1.40;;;14.30;58.80;;;;;;6128623;23;20350;-86
2021/05/09 00:35:10;;;;;;;2.92;1.30;;;14.30;59.10;;;;;;6128071;23;20012;-87
2021/05/09 00:37:36;;;;;;;1.55;1.20;;;14.20;58.80;;;;;;6129107;23;20074;-87
2021/05/09 00:40:03;;;;;;;2.13;1.23;;;14.20;58.90;;;;;;6152193;23;20029;-86
2021/05/09 00:42:28;;;;;;;1.80;1.13;;;14.20;59.30;;;;;;6129048;23;20291;-86
2021/05/09 00:44:54;;;;;;;1.60;1.10;;;14.10;60.20;;;;;;6128757;23;20021;-87
2021/05/09 00:47:19;;;;;;;1.00;0.77;;;14.10;59.70;;;;;;6127739;23;20006;-86
2021/05/09 00:49:45;;;;;;;1.40;1.30;;;14.10;60.70;;;;;;6128211;23;20294;-87
2021/05/09 00:52:12;;;;;;;1.30;1.00;;;14.00;60.10;;;;;;6127451;23;20020;-87
2021/05/09 00:54:44;;;;;;;2.67;1.58;;;14.00;60.00;;;;;;6129133;23;20040;-86
2021/05/09 00:57:12;;;;;;;1.88;1.30;;;13.90;60.60;;;;;;6127582;23;20025;-86
2021/05/09 00:59:39;;;;;;;1.73;1.10;;;13.90;60.40;;;;;;6128818;23;20198;-86
2021/05/09 01:02:04;;;;;;;1.80;0.90;;;13.90;60.80;;;;;;6152562;23;20224;-86
2021/05/09 01:04:31;;;;;;;1.35;1.08;;;13.90;60.40;;;;;;6127435;23;20020;-86
2021/05/09 01:06:57;;;;;;;5.72;1.20;;;13.90;60.60;;;;;;6128877;23;20006;-87
2021/05/09 01:09:24;;;;;;;6.45;1.75;;;13.80;60.60;;;;;;6127596;23;20006;-86
2021/05/09 01:11:49;;;;;;;2.17;1.13;;;13.80;60.20;;;;;;6128544;23;20017;-86
2021/05/09 01:14:15;;;;;;;2.28;1.10;;;13.80;60.90;;;;;;6128839;23;19998;-87
2021/05/09 01:16:40;;;;;;;3.22;1.40;;;13.80;60.70;;;;;;6127492;23;20002;-86
2021/05/09 01:19:06;;;;;;;2.47;1.20;;;13.80;61.30;;;;;;6127533;23;20459;-86
2021/05/09 01:21:31;;;;;;;1.65;1.38;;;13.80;60.90;;;;;;6129467;23;20338;-86
2021/05/09 01:23:57;;;;;;;2.58;1.38;;;13.80;60.90;;;;;;6128274;23;20143;-86
2021/05/09 01:26:22;;;;;;;2.63;1.33;;;13.70;60.90;;;;;;6127171;23;20014;-86
2021/05/09 01:28:49;;;;;;;2.22;1.40;;;13.70;61.20;;;;;;6128390;23;20335;-86
2021/05/09 01:31:15;;;;;;;4.25;1.55;;;13.70;61.00;;;;;;6127690;23;20014;-85
2021/05/09 01:33:40;;;;;;;4.03;1.63;;;13.60;61.90;;;;;;6128917;23;20239;-85
2021/05/09 01:36:06;;;;;;;3.58;1.10;;;13.60;61.40;;;;;;6128030;23;20001;-86
2021/05/09 01:38:31;;;;;;;2.75;1.30;;;13.60;60.90;;;;;;6128519;23;20399;-86
2021/05/09 01:40:57;;;;;;;4.75;1.08;;;13.60;61.60;;;;;;6128722;23;20096;-85
2021/05/09 01:43:22;;;;;;;1.80;1.67;;;13.60;61.80;;;;;;6128374;23;20073;-86
2021/05/09 01:45:48;;;;;;;2.47;1.20;;;13.60;61.30;;;;;;6128098;23;20013;-86
2021/05/09 01:48:13;;;;;;;2.80;1.13;;;13.60;61.40;;;;;;6127240;23;20014;-85
2021/05/09 01:50:39;;;;;;;2.13;1.20;;;13.60;62.10;;;;;;6128454;23;20010;-86
2021/05/09 01:53:04;;;;;;;1.95;1.48;;;13.50;61.90;;;;;;6127488;23;20011;-86
2021/05/09 01:55:30;;;;;;;1.92;1.15;;;13.50;62.20;;;;;;6127040;23;20001;-86
2021/05/09 01:57:56;;;;;;;2.75;1.40;;;13.50;62.30;;;;;;6127602;23;20006;-85
2021/05/09 02:00:22;;;;;;;3.25;1.20;;;13.40;61.90;;;;;;6128404;23;20006;-86
2021/05/09 02:02:48;;;;;;;2.20;1.55;;;13.40;62.40;;;;;;6128397;23;20372;-85
2021/05/09 02:05:15;;;;;;;2.28;1.30;;;13.40;62.80;;;;;;6127381;23;20010;-85
2021/05/09 02:07:41;;;;;;;1.70;1.15;;;13.40;62.80;;;;;;6127194;23;20010;-86
2021/05/09 02:10:08;;;;;;;2.08;1.25;;;13.40;62.70;;;;;;6127489;23;20469;-86
2021/05/09 02:12:35;;;;;;;2.45;1.60;;;13.40;63.30;;;;;;6128103;23;20212;-85
2021/05/09 02:15:00;;;;;;;1.65;1.40;;;13.40;63.10;;;;;;6102552;23;20343;-86
2021/05/09 02:17:26;;;;;;;4.18;1.40;;;13.30;62.60;;;;;;6128428;23;20013;-86
2021/05/09 02:19:51;;;;;;;2.72;1.40;;;13.30;62.90;;;;;;6128432;23;20002;-86
2021/05/09 02:22:17;;;;;;;2.95;1.55;;;13.30;63.50;;;;;;6151923;23;20080;-86
2021/05/09 02:24:43;;;;;;;1.67;1.40;;;13.40;63.40;;;;;;6128453;23;20021;-86
2021/05/09 02:27:10;;;;;;;2.17;1.55;;;13.40;63.20;;;;;;6126891;23;20016;-87
2021/05/09 02:29:35;;;;;;;1.90;1.58;;;13.30;63.30;;;;;;6128165;23;20006;-86
2021/05/09 02:32:01;;;;;;;2.40;1.40;;;13.30;63.40;;;;;;6128790;23;20065;-86
2021/05/09 02:34:26;;;;;;;1.85;1.38;;;13.20;63.70;;;;;;6129981;23;20041;-86
2021/05/09 02:36:52;;;;;;;3.65;1.55;;;13.20;63.90;;;;;;6130302;23;20082;-86
2021/05/09 02:39:17;;;;;;;2.17;1.40;;;13.20;63.50;;;;;;6153089;23;20010;-86
2021/05/09 02:41:43;;;;;;;1.85;1.17;;;13.20;63.60;;;;;;6129163;23;20020;-86
2021/05/09 02:44:09;;;;;;;3.15;1.50;;;13.20;63.90;;;;;;6129287;23;20017;-86
2021/05/09 02:46:35;;;;;;;1.80;1.33;;;13.10;63.40;;;;;;6129629;23;20006;-86
2021/05/09 02:49:01;;;;;;;1.48;1.27;;;13.20;63.80;;;;;;6130014;23;20016;-86
2021/05/09 02:51:26;;;;;;;4.20;1.52;;;13.10;64.10;;;;;;6153584;23;20010;-87
2021/05/09 02:53:52;;;;;;;1.98;1.10;;;13.20;63.80;;;;;;6128914;23;20002;-86
2021/05/09 02:56:18;;;;;;;2.90;1.30;;;13.20;63.90;;;;;;6128831;23;20043;-86
2021/05/09 02:58:43;;;;;;;1.70;1.27;;;13.20;64.40;;;;;;6128718;23;20006;-86
2021/05/09 03:01:09;;;;;;;1.95;1.10;;;13.20;63.70;;;;;;6129169;23;20024;-86
2021/05/09 03:03:34;;;;;;;1.58;1.27;;;13.20;63.70;;;;;;6129155;23;20260;-86
2021/05/09 03:06:00;;;;;;;1.45;1.20;;;13.10;64.10;;;;;;6129453;23;20404;-86
2021/05/09 03:08:25;;;;;;;3.28;1.70;;;13.20;64.70;;;;;;6152910;23;20010;-86
2021/05/09 03:10:51;;;;;;;2.72;1.40;;;13.10;64.40;;;;;;6153080;23;20339;-87
2021/05/09 03:13:16;;;;;;;3.70;1.15;;;13.10;64.20;;;;;;6129367;23;20005;-86
2021/05/09 03:15:42;;;;;;;3.60;1.30;;;13.10;64.30;;;;;;6128819;23;20103;-86
2021/05/09 03:18:08;;;;;;;2.58;1.65;;;13.10;64.50;;;;;;6129014;23;20041;-86
2021/05/09 03:20:34;;;;;;;2.88;1.15;;;13.10;64.40;;;;;;6128943;23;20081;-87
2021/05/09 03:23:00;;;;;;;4.00;1.25;;;13.10;64.30;;;;;;6129405;23;20006;-86
2021/05/09 03:25:25;;;;;;;2.22;1.33;;;13.10;64.30;;;;;;6128572;23;20335;-86
2021/05/09 03:27:51;;;;;;;2.67;1.45;;;13.10;64.80;;;;;;6128503;23;20002;-87
2021/05/09 03:30:16;;;;;;;2.78;1.48;;;13.00;64.70;;;;;;6128077;23;20010;-86
2021/05/09 03:32:42;;;;;;;2.13;1.30;;;13.00;65.10;;;;;;6128668;23;20014;-86
2021/05/09 03:35:08;;;;;;;1.63;1.30;;;13.00;65.70;;;;;;6129434;23;20010;-86
2021/05/09 03:37:34;;;;;;;3.30;1.30;;;12.90;65.60;;;;;;6129095;23;20013;-87
2021/05/09 03:40:00;;;;;;;2.63;1.30;;;12.90;65.60;;;;;;6128756;23;20381;-86
2021/05/09 03:42:26;;;;;;;2.58;1.23;;;12.90;65.20;;;;;;6127990;23;20010;-87
2021/05/09 03:44:51;;;;;;;2.42;1.33;;;12.90;65.60;;;;;;6128761;23;20010;-86
2021/05/09 03:47:16;;;;;;;4.95;1.05;;;13.00;66.20;;;;;;6128701;23;20373;-87
2021/05/09 03:49:42;;;;;;;2.53;1.27;;;12.90;66.00;;;;;;6128224;23;20036;-87
2021/05/09 03:52:07;;;;;;;5.03;1.55;;;12.90;66.20;;;;;;6129549;23;20014;-86
2021/05/09 03:54:33;;;;;;;3.58;1.40;;;12.90;66.20;;;;;;6129313;23;20033;-85
2021/05/09 03:56:58;;;;;;;2.72;1.63;;;12.90;66.10;;;;;;6129228;23;20017;-86
2021/05/09 03:59:24;;;;;;;2.72;1.55;;;12.90;66.40;;;;;;6153125;23;20014;-86
2021/05/09 04:01:49;;;;;;;2.60;1.52;;;13.00;66.20;;;;;;6152624;23;20016;-85
2021/05/09 04:04:15;;;;;;;2.40;1.35;;;12.90;66.20;;;;;;6128677;23;20013;-85
2021/05/09 04:06:41;;;;;;;2.28;1.30;;;12.90;66.20;;;;;;6153052;23;20017;-86
2021/05/09 04:09:06;;;;;;;2.95;1.20;;;12.90;66.00;;;;;;6128007;23;20017;-86
2021/05/09 04:11:33;;;;;;;1.65;1.20;;;12.90;66.70;;;;;;6128163;23;20029;-86
2021/05/09 04:13:58;;;;;;;2.60;1.50;;;13.00;66.20;;;;;;6129363;23;20024;-85
2021/05/09 04:16:24;;;;;;;1.55;1.10;;;13.00;65.80;;;;;;6128147;23;20405;-87
2021/05/09 04:18:49;;;;;;;4.03;1.05;;;13.00;65.90;;;;;;6128629;23;20002;-86
2021/05/09 04:21:15;;;;;;;1.63;1.00;;;13.00;66.10;;;;;;6128918;23;20135;-87
2021/05/09 04:23:40;;;;;;;1.85;1.25;;;13.00;66.40;;;;;;6128499;23;20014;-86
2021/05/09 04:26:06;;;;;;;1.70;1.25;;;13.00;66.60;;;;;;6128445;23;20432;-86
2021/05/09 04:28:31;;;;;;;2.35;1.48;;;13.10;66.30;;;;;;6128720;23;20014;-86
2021/05/09 04:30:57;;;;;;;7.32;1.58;;;13.10;66.30;;;;;;6129135;23;20006;-86
2021/05/09 04:33:25;;;;;;;7.28;1.25;;;13.10;67.10;;;;;;6128829;23;20010;-86
2021/05/09 04:35:51;;;;;;;2.42;1.30;;;13.10;66.40;;;;;;6128870;23;20060;-86
2021/05/09 04:38:18;;;;;;;1.58;1.20;;;13.20;66.70;;;;;;6128290;23;20250;-86
2021/05/09 04:40:43;;;;;;;4.43;1.15;;;13.20;66.60;;;;;;6152270;23;20544;-85
2021/05/09 04:43:15;;;;;;;5.22;1.52;;;13.30;66.40;;;;;;6128239;23;20002;-86
2021/05/09 04:45:47;;;;;;;2.95;1.27;;;13.30;66.80;;;;;;6127853;23;20013;-87
2021/05/09 04:48:13;;;;;;;1.88;1.10;;;13.30;66.20;;;;;;6128928;23;20235;-84
2021/05/09 04:50:39;;;;;;;3.03;1.23;;;13.40;66.40;;;;;;6128975;23;20005;-86
2021/05/09 04:53:22;;;;;;;2.70;1.70;;;13.40;65.80;;;;;;6126912;23;20093;-86
2021/05/09 04:55:47;;;;;;;2.38;1.00;;;13.50;66.30;;;;;;6129051;23;20009;-86
2021/05/09 04:58:12;;;;;;;2.33;1.20;;;13.50;65.50;;;;;;6127593;23;20061;-86
2021/05/09 05:00:38;;;;;;;1.88;1.50;;;13.50;65.90;;;;;;6127390;23;20006;-86
2021/05/09 05:03:03;;;;;;;1.42;1.30;;;13.60;65.90;;;;;;6128196;23;20035;-86
2021/05/09 05:05:29;;;;;;;2.00;1.10;;;13.60;66.30;;;;;;6127053;23;20024;-86
2021/05/09 05:07:54;;;;;;;1.98;1.33;;;13.60;66.30;;;;;;6149984;23;20016;-87
2021/05/09 05:10:20;;;;;;;2.17;1.27;;;13.60;65.60;;;;;;6150491;23;20009;-87
2021/05/09 05:12:45;;;;;;;3.88;1.55;;;13.60;65.50;;;;;;6125358;23;20005;-86
2021/05/09 05:15:11;;;;;;;2.40;1.30;;;13.70;65.70;;;;;;6125545;23;20006;-87
2021/05/09 05:17:37;;;;;;;2.60;1.20;;;13.70;66.60;;;;;;6126169;23;20037;-86
2021/05/09 05:20:04;;;;;;;1.90;1.30;;;13.70;66.10;;;;;;6125463;23;20013;-86
2021/05/09 05:22:29;;;;;;;1.77;1.20;;;13.70;65.60;;;;;;6126677;23;20041;-85
2021/05/09 05:24:55;;;;;;;4.68;1.10;;;13.80;65.90;;;;;;6126560;23;20033;-87
2021/05/09 05:27:20;;;;;;;1.98;1.17;;;13.80;66.70;;;;;;6124837;23;20223;-87
2021/05/09 05:29:46;;;;;;;1.90;1.30;;;13.80;65.40;;;;;;6125182;23;20006;-85
2021/05/09 05:32:11;;;;;;;1.98;1.23;;;13.90;66.70;;;;;;6149287;23;20017;-86
2021/05/09 05:34:37;;;;;;;2.45;1.10;;;13.90;66.60;;;;;;6125526;23;20346;-86
2021/05/09 05:37:02;;;;;;;2.03;1.38;;;14.00;65.50;;;;;;6149662;23;20385;-86
2021/05/09 05:39:28;;;;;;;4.55;1.70;;;14.10;65.60;;;;;;6125084;23;20010;-86
2021/05/09 05:41:54;;;;;;;1.45;1.00;;;14.10;65.80;;;;;;6150199;23;20005;-87
2021/05/09 05:44:19;;;;;;;1.65;1.20;;;14.20;65.70;;;;;;6126690;23;20017;-86
2021/05/09 05:46:45;;;;;;;2.00;1.25;;;14.20;65.30;;;;;;6125482;23;20013;-86
2021/05/09 05:49:10;;;;;;;2.17;1.33;;;14.20;65.50;;;;;;6125378;23;20335;-87
2021/05/09 05:51:36;;;;;;;2.53;1.48;;;14.30;65.60;;;;;;6125898;23;20097;-86
2021/05/09 05:54:01;;;;;;;2.65;1.40;;;14.30;65.40;;;;;;6125257;23;20021;-85
2021/05/09 05:56:27;;;;;;;1.83;1.20;;;14.30;64.90;;;;;;6125933;23;20017;-86
2021/05/09 05:58:53;;;;;;;2.92;1.75;;;14.30;65.20;;;;;;6151533;23;20092;-87
2021/05/09 06:01:19;;;;;;;2.80;1.13;;;14.40;66.00;;;;;;6127405;23;20014;-87
2021/05/09 06:03:44;;;;;;;2.08;1.15;;;14.30;65.30;;;;;;6128227;23;20033;-87
2021/05/09 06:06:10;;;;;;;2.33;1.38;;;14.40;65.30;;;;;;6130368;23;20239;-86
2021/05/09 06:08:35;;;;;;;1.90;1.38;;;14.40;65.80;;;;;;6130592;23;20021;-86
2021/05/09 06:11:02;;;;;;;1.60;1.15;;;14.40;66.30;;;;;;6129586;23;20016;-86
2021/05/09 06:13:28;;;;;;;2.47;1.40;;;14.30;66.50;;;;;;6128701;23;20033;-87
2021/05/09 06:15:54;;;;;;;2.85;1.60;;;14.30;65.80;;;;;;6129518;23;20033;-86
2021/05/09 06:18:19;;;;;;;3.00;1.67;;;14.40;65.80;;;;;;6129920;23;20009;-87
2021/05/09 06:20:45;;;;;;;4.90;1.83;;;14.40;66.50;;;;;;6129356;23;20020;-87
2021/05/09 06:23:10;;;;;;;2.38;1.38;;;14.50;66.10;;;;;;6129511;23;20279;-87
2021/05/09 06:25:37;;;;;;;3.47;1.65;;;14.50;67.10;;;;;;6130194;23;20044;-86
2021/05/09 06:28:04;;;;;;;1.95;1.10;;;14.60;65.90;;;;;;6130160;23;20022;-87
2021/05/09 06:30:30;;;;;;;1.77;1.10;;;14.60;65.90;;;;;;6129692;23;20100;-86
2021/05/09 06:32:56;;;;;;;1.50;0.93;;;14.70;65.60;;;;;;6130088;23;20006;-87
2021/05/09 06:35:21;;;;;;;2.47;1.45;;;14.90;65.90;;;;;;6129991;23;20028;-86
2021/05/09 06:37:50;;;;;;;3.83;1.10;;;15.00;65.50;;;;;;6129751;23;20361;-87
2021/05/09 06:40:17;;;;;;;1.33;0.90;;;15.00;65.50;;;;;;6128406;23;20009;-86
2021/05/09 06:42:42;;;;;;;2.80;1.38;;;15.20;65.10;;;;;;6128916;23;20687;-87
2021/05/09 06:45:15;;;;;;;2.50;1.20;;;15.30;64.90;;;;;;6129074;23;20014;-86
2021/05/09 06:47:41;;;;;;;;;;;15.50;64.20;;;;;;6130114;23;20076;-86
2021/05/09 06:50:07;;;;;;;2.50;1.00;;;15.70;63.90;;;;;;6129554;23;19909;-86
2021/05/09 06:52:32;;;;;;;1.83;1.05;;;15.80;64.30;;;;;;6128734;23;20005;-86
2021/05/09 06:55:00;;;;;;;3.70;1.27;;;16.00;63.90;;;;;;6129395;23;20010;-85
2021/05/09 06:57:26;;;;;;;2.58;1.20;;;16.20;64.20;;;;;;6152180;23;20465;-85
2021/05/09 06:59:51;;;;;;;1.15;0.93;;;16.40;62.50;;;;;;6152958;23;20002;-87
2021/05/09 07:02:17;;;;;;;1.88;0.80;;;16.60;62.90;;;;;;6128563;23;20138;-86
2021/05/09 07:04:42;;;;;;;1.75;1.00;;;16.70;61.80;;;;;;6129775;23;20006;-86
2021/05/09 07:07:07;;;;;;;3.15;0.77;;;16.90;61.40;;;;;;6128296;23;20258;-85
2021/05/09 07:09:33;;;;;;;2.08;1.00;;;17.10;61.90;;;;;;6129753;23;20010;-87
2021/05/09 07:11:58;;;;;;;3.47;0.88;;;17.20;60.80;;;;;;6129348;23;20006;-86
2021/05/09 07:14:24;;;;;;;2.55;1.33;;;17.50;59.90;;;;;;6152702;23;20010;-87
2021/05/09 07:16:49;;;;;;;2.05;1.10;;;17.70;60.70;;;;;;6129409;23;20076;-86
2021/05/09 07:19:16;;;;;;;3.22;0.90;;;17.90;59.30;;;;;;6129341;23;20460;-86
2021/05/09 07:21:51;;;;;;;1.10;0.80;;;18.00;59.00;;;;;;6128895;23;20036;-87
2021/05/09 07:24:17;;;;;;;1.27;0.90;;;18.20;58.00;;;;;;6130017;23;20009;-85
2021/05/09 07:26:43;;;;;;;1.58;0.80;;;18.30;59.40;;;;;;6129396;23;20016;-85
2021/05/09 07:29:08;;;;;;;4.22;0.82;;;18.50;57.80;;;;;;6153346;23;20396;-86
2021/05/09 07:31:40;;;;;;;1.52;0.93;;;18.70;57.50;;;;;;6128058;23;20033;-85
2021/05/09 07:34:05;;;;;;;1.50;0.90;;;18.90;58.10;;;;;;6153438;23;20391;-86
2021/05/09 07:36:31;;;;;;;1.75;0.95;;;19.10;57.40;;;;;;6128761;23;20024;-85
2021/05/09 07:38:56;;;;;;;1.42;0.80;;;19.20;56.40;;;;;;6152446;23;20028;-86
2021/05/09 07:41:22;;;;;;;4.07;1.48;;;19.40;56.00;;;;;;6129328;23;20016;-85
2021/05/09 07:43:48;;;;;;;2.90;0.88;;;19.70;55.60;;;;;;6128677;23;20251;-86
2021/05/09 07:46:13;;;;;;;5.25;1.13;;;19.80;55.10;;;;;;6129673;23;20121;-85
2021/05/09 07:48:39;;;;;;;3.30;0.80;;;20.00;54.40;;;;;;6128755;23;20363;-85
2021/05/09 07:51:05;;;;;;;1.58;0.77;;;20.10;55.10;;;;;;6127198;23;20017;-86
2021/05/09 07:53:30;;;;;;;1.63;0.75;;;20.20;53.40;;;;;;6128650;23;20014;-85
2021/05/09 07:55:56;;;;;;;2.60;0.73;;;20.30;53.10;;;;;;6151782;23;20014;-85
2021/05/09 07:58:22;;;;;;;1.65;0.80;;;20.30;52.70;;;;;;6129050;23;20072;-85
2021/05/09 08:00:48;;;;;;;1.42;0.70;;;20.40;52.50;;;;;;6128579;23;20077;-85
2021/05/09 08:03:15;;;;;;;1.52;0.82;;;20.50;53.30;;;;;;6128504;23;20077;-85
2021/05/09 08:05:40;;;;;;;0.95;0.63;;;20.60;52.90;;;;;;6129510;23;20006;-85
2021/05/09 08:08:06;;;;;;;1.80;0.70;;;20.70;52.70;;;;;;6127292;23;20338;-85
2021/05/09 08:10:38;;;;;;;0.90;0.50;;;20.90;52.90;;;;;;6126654;23;20005;-84
2021/05/09 08:13:05;;;;;;;1.67;0.80;;;20.90;52.40;;;;;;6128150;23;20080;-84
2021/05/09 08:15:31;;;;;;;1.52;0.70;;;21.10;52.70;;;;;;6128330;23;20065;-85
2021/05/09 08:17:57;;;;;;;2.10;0.70;;;21.30;53.30;;;;;;6128094;23;20002;-84
2021/05/09 08:20:23;;;;;;;1.02;0.75;;;21.40;50.80;;;;;;6129003;23;20085;-84
2021/05/09 08:22:49;;;;;;;2.63;0.90;;;21.50;54.20;;;;;;6128962;23;20020;-83
2021/05/09 08:25:16;;;;;;;1.83;1.05;;;21.60;51.20;;;;;;6152959;23;20013;-84
2021/05/09 08:27:43;;;;;;;3.60;0.60;;;21.70;51.30;;;;;;6128497;23;20018;-85
2021/05/09 08:30:08;;;;;;;0.95;0.65;;;21.80;50.40;;;;;;6129268;23;20025;-85
2021/05/09 08:32:34;;;;;;;2.35;0.75;;;22.00;49.60;;;;;;6128371;23;20021;-84
2021/05/09 08:35:02;;;;;;;0.73;0.50;;;21.90;49.70;;;;;;6128361;23;20319;-84
2021/05/09 08:37:27;;;;;;;1.13;0.65;;;21.90;49.80;;;;;;6128508;23;20089;-84
2021/05/09 08:39:53;;;;;;;1.15;0.88;;;22.00;50.60;;;;;;6151825;23;20006;-85
2021/05/09 08:42:19;;;;;;;2.50;0.70;;;22.10;50.80;;;;;;6128212;23;20014;-85
2021/05/09 08:44:50;;;;;;;0.80;0.60;;;22.20;50.50;;;;;;6129270;23;20068;-83
2021/05/09 08:47:21;;;;;;;0.90;0.70;;;22.40;50.30;;;;;;6129197;23;20089;-83
2021/05/09 08:49:50;;;;;;;1.75;0.57;;;22.40;50.60;;;;;;6152912;23;20002;-83
2021/05/09 08:52:19;;;;;;;1.08;0.80;;;22.60;50.50;;;;;;6128758;23;20005;-83
2021/05/09 08:54:44;;;;;;;1.45;0.98;;;22.70;51.30;;;;;;6129373;23;20008;-84
2021/05/09 08:57:10;;;;;;;1.63;0.70;;;22.80;51.70;;;;;;6128663;23;20033;-85
2021/05/09 08:59:37;;;;;;;1.20;0.50;;;22.90;50.60;;;;;;6129114;23;20005;-84
2021/05/09 09:02:02;;;;;;;0.68;0.47;;;23.10;50.80;;;;;;6129118;23;20409;-84
2021/05/09 09:04:42;;;;;;;1.38;0.60;;;23.30;49.60;;;;;;6128023;23;20014;-84
2021/05/09 09:07:10;;;;;;;4.40;0.82;;;23.40;48.50;;;;;;6128163;23;20009;-84
2021/05/09 09:09:40;;;;;;;2.65;0.65;;;23.50;48.10;;;;;;6128717;23;20401;-84
2021/05/09 09:12:06;;;;;;;2.60;0.75;;;23.50;50.40;;;;;;6128963;23;20286;-83
2021/05/09 09:14:31;;;;;;;1.15;0.60;;;23.50;49.00;;;;;;6128734;23;20040;-84
2021/05/09 09:17:14;;;;;;;0.90;0.68;;;23.60;48.80;;;;;;6129033;23;20001;-84
2021/05/09 09:19:58;;;;;;;;;;;23.70;50.50;;;;;;6129276;23;20021;-84
2021/05/09 09:22:23;;;;;;;3.58;0.57;;;23.80;49.00;;;;;;6128797;23;20234;-84
2021/05/09 09:25:08;;;;;;;0.73;0.50;;;23.80;51.00;;;;;;6128205;23;20045;-83
2021/05/09 09:27:41;;;;;;;0.65;0.50;;;23.90;48.30;;;;;;6127527;23;20353;-84
2021/05/09 09:30:08;;;;;;;0.95;0.60;;;24.10;49.70;;;;;;6129202;23;20067;-84
2021/05/09 09:32:33;;;;;;;1.83;0.70;;;24.10;47.80;;;;;;6151593;23;20056;-83
2021/05/09 09:34:59;;;;;;;0.80;0.60;;;24.10;46.50;;;;;;6128685;23;20354;-83
2021/05/09 09:37:32;;;;;;;2.08;0.80;;;24.20;49.00;;;;;;6127777;23;20108;-82
2021/05/09 09:40:02;;;;;;;3.70;0.98;;;24.40;48.50;;;;;;6130082;23;19998;-83
2021/05/09 09:42:38;;;;;;;2.55;0.60;;;24.50;49.40;;;;;;6130888;23;20076;-83
2021/05/09 09:45:23;;;;;;;1.00;0.65;;;24.60;46.90;;;;;;6130448;23;20020;-83
2021/05/09 09:47:51;;;;;;;1.65;0.60;;;24.70;47.60;;;;;;6130935;23;20250;-82
2021/05/09 09:50:40;;;;;;;0.80;0.63;;;24.70;48.80;;;;;;6129418;23;20061;-83
2021/05/09 09:53:24;;;;;;;1.92;0.88;;;24.90;51.40;;;;;;6130761;23;20009;-83
2021/05/09 09:56:07;;;;;;;2.03;0.75;;;25.10;48.80;;;;;;6130551;23;20010;-83
2021/05/09 09:58:40;;;;;;;1.80;0.90;;;25.10;47.60;;;;;;6129328;23;20266;-83
2021/05/09 10:01:07;;;;;;;0.77;0.40;;;25.30;48.20;;;;;;6130865;23;20005;-83
2021/05/09 10:03:32;;;;;;;1.40;0.80;;;25.40;49.70;;;;;;6129256;23;20010;-83
2021/05/09 10:05:58;;;;;;;1.85;0.55;;;25.50;46.20;;;;;;6129629;23;20017;-84
2021/05/09 10:08:25;;;;;;;7.22;0.95;;;25.50;47.20;;;;;;6129566;23;20072;-84
2021/05/09 10:10:51;;;;;;;1.15;0.70;;;25.60;48.60;;;;;;6104955;23;20366;-84
2021/05/09 10:13:22;;;;;;;1.13;0.50;;;25.60;46.00;;;;;;6129402;23;20344;-84
2021/05/09 10:15:48;;;;;;;1.25;0.80;;;25.60;47.80;;;;;;6130115;23;20028;-83
2021/05/09 10:18:14;;;;;;;1.70;0.68;;;25.60;46.60;;;;;;6130733;23;20017;-83
2021/05/09 10:20:40;;;;;;;1.65;0.93;;;25.80;47.80;;;;;;6130323;23;20001;-82
2021/05/09 10:23:07;;;;;;;1.42;0.68;;;26.00;46.70;;;;;;6129226;23;20010;-83
2021/05/09 10:25:44;;;;;;;1.17;0.60;;;26.00;44.80;;;;;;6129523;23;20096;-82
2021/05/09 10:28:10;;;;;;;2.33;0.57;;;26.20;44.90;;;;;;6129026;23;20010;-83
2021/05/09 10:30:51;;;;;;;1.48;0.80;;;26.30;45.20;;;;;;6130586;23;20006;-83
2021/05/09 10:33:39;;;;;;;3.42;0.90;;;26.40;47.80;;;;;;6129835;23;20366;-83
2021/05/09 10:36:07;;;;;;;4.57;0.85;;;26.50;45.50;;;;;;6130298;23;20002;-84
2021/05/09 10:39:12;;;;;;;0.85;0.60;;;26.60;45.10;;;;;;6130210;23;20006;-83
2021/05/09 10:41:58;;;;;;;0.90;0.60;;;26.70;44.10;;;;;;6126085;23;20010;-83
2021/05/09 10:44:45;;;;;;;2.45;0.50;;;26.90;44.40;;;;;;6129336;23;20013;-83
2021/05/09 10:47:16;;;;;;;0.80;0.50;;;27.10;49.10;;;;;;6128571;23;20009;-83
2021/05/09 10:50:20;;;;;;;2.17;1.10;;;27.30;46.00;;;;;;6128983;23;20040;-83
2021/05/09 10:52:47;;;;;;;2.45;0.55;;;27.40;43.90;;;;;;6129417;23;20016;-83
2021/05/09 10:55:39;;;;;;;0.80;0.50;;;27.40;43.50;;;;;;6129337;23;20002;-83
2021/05/09 10:58:06;;;;;;;1.05;0.70;;;27.50;44.20;;;;;;6129626;23;20036;-83
2021/05/09 11:00:57;;;;;;;1.35;0.60;;;27.50;43.60;;;;;;6128637;23;20029;-83
2021/05/09 11:03:39;;;;;;;2.88;0.60;;;27.60;44.30;;;;;;6129327;23;20405;-83
2021/05/09 11:06:15;;;;;;;3.30;0.60;;;27.80;44.90;;;;;;6127946;23;20039;-83
2021/05/09 11:09:02;;;;;;;3.33;0.63;;;27.80;44.10;;;;;;6103606;23;20076;-82
2021/05/09 11:11:31;;;;;;;2.65;0.50;;;27.90;44.10;;;;;;6129318;23;20044;-82
2021/05/09 11:14:02;;;;;;;2.75;0.60;;;27.90;43.10;;;;;;6129869;23;19998;-82
2021/05/09 11:16:34;;;;;;;0.90;0.45;;;28.00;45.30;;;;;;6129185;23;19998;-83
2021/05/09 11:19:08;;;;;;;1.10;0.70;;;28.10;44.60;;;;;;6128955;23;20108;-83
2021/05/09 11:21:42;;;;;;;0.75;0.50;;;28.10;45.40;;;;;;6129188;23;20100;-82
2021/05/09 11:24:09;;;;;;;1.00;0.73;;;28.20;44.00;;;;;;6127820;23;20009;-83
2021/05/09 11:26:39;;;;;;;2.40;1.10;;;28.30;44.80;;;;;;6129374;23;20096;-83
2021/05/09 11:29:06;;;;;;;1.83;0.50;;;28.30;44.60;;;;;;6128946;23;20010;-83
2021/05/09 11:31:33;;;;;;;3.50;1.05;;;28.40;44.00;;;;;;6127667;23;20014;-83
2021/05/09 11:33:59;;;;;;;4.28;0.95;;;28.40;45.20;;;;;;6127929;23;20034;-84
2021/05/09 11:36:32;;;;;;;1.88;0.45;;;28.60;43.20;;;;;;6129171;23;20056;-83
2021/05/09 11:39:13;;;;;;;2.35;0.50;;;28.70;45.50;;;;;;6128914;23;20002;-83
2021/05/09 11:41:51;;;;;;;1.55;0.50;;;28.80;44.90;;;;;;6128231;23;20122;-82
2021/05/09 11:44:18;;;;;;;1.75;0.60;;;28.90;43.20;;;;;;6129991;23;20268;-82
2021/05/09 11:46:44;;;;;;;2.83;0.55;;;28.80;44.10;;;;;;6128970;23;20075;-83
2021/05/09 11:49:17;;;;;;;0.75;0.50;;;28.80;44.80;;;;;;6129360;23;20345;-82
2021/05/09 11:51:57;;;;;;;9.00;0.60;;;28.90;43.90;;;;;;6129618;23;20425;-83
2021/05/09 11:54:25;;;;;;;1.20;0.60;;;29.00;46.00;;;;;;6127584;23;20002;-80
2021/05/09 11:56:58;;;;;;;2.05;0.63;;;29.10;43.20;;;;;;6129447;23;20005;-82
2021/05/09 11:59:50;;;;;;;0.88;0.55;;;29.20;45.90;;;;;;6126635;23;20089;-84
2021/05/09 12:02:16;;;;;;;1.10;0.60;;;29.30;42.70;;;;;;6127231;23;20010;-83
2021/05/09 12:04:42;;;;;;;1.30;0.68;;;29.30;46.30;;;;;;6127631;23;20069;-85
2021/05/09 12:07:12;;;;;;;1.13;0.70;;;29.40;45.20;;;;;;6128428;23;20010;-85
2021/05/09 12:09:38;;;;;;;1.88;0.50;;;29.50;43.70;;;;;;6128173;23;20020;-83
2021/05/09 12:12:04;;;;;;;2.50;0.45;;;29.60;42.60;;;;;;6126765;23;20010;-83
2021/05/09 12:14:30;;;;;;;0.95;0.50;;;29.60;42.60;;;;;;6127046;23;20037;-83
2021/05/09 12:16:56;;;;;;;1.20;0.40;;;29.80;43.10;;;;;;6126385;23;20016;-85
2021/05/09 12:19:33;;;;;;;1.08;0.68;;;29.90;44.00;;;;;;6127472;23;20006;-85
2021/05/09 12:22:01;;;;;;;0.85;0.57;;;30.00;43.50;;;;;;6151646;23;20024;-84
2021/05/09 12:24:27;;;;;;;1.92;0.57;;;30.10;45.80;;;;;;6127005;23;20378;-86
2021/05/09 12:27:06;;;;;;;2.15;0.73;;;30.20;42.50;;;;;;6149343;23;20010;-84
2021/05/09 12:29:41;;;;;;;1.88;0.70;;;30.20;42.60;;;;;;6127361;23;20271;-84
2021/05/09 12:32:25;;;;;;;1.08;0.45;;;30.20;43.10;;;;;;6125721;23;20010;-84
2021/05/09 12:35:11;;;;;;;1.23;0.75;;;30.20;42.60;;;;;;6128416;23;19998;-84
2021/05/09 12:37:49;;;;;;;3.05;0.88;;;30.20;44.00;;;;;;6125886;23;20009;-85
2021/05/09 12:40:39;;;;;;;2.15;0.73;;;30.30;41.90;;;;;;6127341;23;20156;-84
2021/05/09 12:43:09;;;;;;;1.10;0.60;;;30.20;43.80;;;;;;6128153;23;20304;-85
2021/05/09 12:45:42;;;;;;;1.17;0.68;;;30.30;45.40;;;;;;6126541;23;20017;-85
2021/05/09 12:48:15;;;;;;;0.82;0.55;;;30.40;42.90;;;;;;6127354;23;20013;-84
2021/05/09 12:50:46;;;;;;;0.98;0.60;;;30.40;42.40;;;;;;6126714;23;20002;-84
2021/05/09 12:53:11;;;;;;;0.80;0.50;;;30.40;41.60;;;;;;6128161;23;20437;-86